Time;durP1;ratioP1;P1;durP2;ratioP2;P2;SDS_P1;SDS_P2;PMS_P1;PMS_P2;Temp;Humidity;BMP_temperature;BMP_pressure;BME280_temperature;BME280_humidity;BME280_pressure;Samples;Min_cycle;Max_cycle;Signal;HPM_P1;HPM_P2
2021/10/20 00:00:12;;;;;;;5.73;4.60;;;;;;;13.41;90.52;100633.25;686754;28;1239;-61
2021/10/20 00:00:33;;;;;;;6.95;4.80;;;;;;;13.40;91.04;100628.88;687590;28;978;-60
2021/10/20 00:00:53;;;;;;;7.70;5.00;;;;;;;13.49;90.13;100623.47;685976;28;4418;-60
2021/10/20 00:01:13;;;;;;;7.18;5.00;;;;;;;13.53;89.01;100627.78;687903;28;1101;-60
2021/10/20 00:01:34;;;;;;;6.37;4.80;;;;;;;13.49;89.01;100625.25;685088;28;3765;-59
2021/10/20 00:01:55;;;;;;;6.22;4.75;;;;;;;13.47;89.42;100625.25;685116;28;1402;-60
2021/10/20 00:02:15;;;;;;;6.32;4.78;;;;;;;13.44;89.94;100625.31;685473;28;1253;-61
2021/10/20 00:02:35;;;;;;;7.17;4.63;;;;;;;13.51;88.94;100621.66;684742;28;1183;-58
2021/10/20 00:02:58;;;;;;;7.97;4.50;;;;;;;13.59;88.88;100621.53;684386;28;1285;-57
2021/10/20 00:03:18;;;;;;;7.57;4.68;;;;;;;13.61;88.67;100623.25;685456;28;1313;-60
2021/10/20 00:03:39;;;;;;;7.38;4.97;;;;;;;13.64;88.17;100617.09;684525;28;1137;-60
2021/10/20 00:03:59;;;;;;;6.63;4.73;;;;;;;13.64;88.27;100617.09;684726;28;4440;-60
2021/10/20 00:04:20;;;;;;;6.28;5.00;;;;;;;13.64;88.83;100622.34;685606;28;1435;-59
2021/10/20 00:04:40;;;;;;;6.70;5.03;;;;;;;13.52;91.30;100618.16;684523;28;1345;-60
2021/10/20 00:05:00;;;;;;;8.07;4.90;;;;;;;13.44;91.65;100620.03;684949;28;1794;-59
2021/10/20 00:05:21;;;;;;;7.33;4.90;;;;;;;13.48;91.13;100619.09;685285;28;1224;-60
2021/10/20 00:05:42;;;;;;;6.80;4.97;;;;;;;13.39;92.28;100614.03;688402;28;1165;-59
2021/10/20 00:06:02;;;;;;;8.23;5.17;;;;;;;13.29;93.15;100623.75;687183;28;1971;-59
2021/10/20 00:06:22;;;;;;;8.25;5.13;;;;;;;13.40;90.77;100621.88;685231;28;1449;-59
2021/10/20 00:06:43;;;;;;;6.57;4.80;;;;;;;13.54;89.44;100613.75;683541;28;1430;-60
2021/10/20 00:07:06;;;;;;;7.05;4.80;;;;;;;13.57;88.79;100612.84;683103;28;4469;-59
2021/10/20 00:07:26;;;;;;;7.50;4.80;;;;;;;13.57;89.09;100608.44;683336;28;1308;-59
2021/10/20 00:07:48;;;;;;;8.70;4.78;;;;;;;13.53;89.24;100612.00;681810;28;1709;-59
2021/10/20 00:08:08;;;;;;;8.05;4.50;;;;;;;13.57;89.58;100607.59;683077;28;1124;-59
2021/10/20 00:08:28;;;;;;;6.40;4.70;;;;;;;13.52;90.16;100615.53;685272;28;3194;-61
2021/10/20 00:08:51;;;;;;;7.27;4.93;;;;;;;13.47;90.35;100609.47;685566;28;3533;-60
2021/10/20 00:09:11;;;;;;;6.85;4.95;;;;;;;13.48;89.18;100602.50;685706;28;1065;-60
2021/10/20 00:09:31;;;;;;;6.30;4.67;;;;;;;13.58;88.50;100604.94;686909;28;1255;-60
2021/10/20 00:09:52;;;;;;;6.60;4.90;;;;;;;13.56;88.72;100604.06;684525;28;4355;-59
2021/10/20 00:10:13;;;;;;;6.75;4.60;;;;;;;13.54;89.50;100610.25;686574;28;1157;-59
2021/10/20 00:10:36;;;;;;;6.47;4.88;;;;;;;13.49;89.49;100599.84;685892;28;1105;-60
2021/10/20 00:10:56;;;;;;;7.30;5.10;;;;;;;13.47;90.22;100603.38;680353;28;1453;-59
2021/10/20 00:11:17;;;;;;;6.60;4.93;;;;;;;13.43;89.82;100610.44;678157;29;1203;-60
2021/10/20 00:11:40;;;;;;;6.50;4.93;;;;;;;13.37;90.15;100614.03;678795;28;1256;-57
2021/10/20 00:12:01;;;;;;;6.60;4.72;;;;;;;13.34;90.95;100607.94;678580;29;2634;-59
2021/10/20 00:12:21;;;;;;;6.47;4.80;;;;;;;13.33;91.36;100603.59;677690;29;1225;-59
2021/10/20 00:12:42;;;;;;;6.45;4.82;;;;;;;13.27;91.58;100599.31;678661;28;1308;-60
2021/10/20 00:13:04;;;;;;;7.68;5.20;;;;;;;13.29;90.78;100602.75;684092;28;4431;-59
2021/10/20 00:13:25;;;;;;;8.82;5.07;;;;;;;13.27;91.64;100605.41;685486;28;1048;-60
2021/10/20 00:13:46;;;;;;;8.55;5.28;;;;;;;13.23;91.29;100603.72;686190;28;1279;-58
2021/10/20 00:14:07;;;;;;;8.55;5.20;;;;;;;13.32;91.07;100596.59;687469;28;1133;-61
2021/10/20 00:14:27;;;;;;;6.50;5.10;;;;;;;13.32;90.64;100602.72;687292;28;1121;-60
2021/10/20 00:14:48;;;;;;;6.35;4.70;;;;;;;13.29;91.54;100598.41;687704;28;1318;-60
2021/10/20 00:15:11;;;;;;;7.63;5.10;;;;;;;13.26;91.29;100593.19;687548;28;1328;-60
2021/10/20 00:15:31;;;;;;;7.55;5.00;;;;;;;13.21;91.01;100597.66;687832;28;3064;-58
2021/10/20 00:15:52;;;;;;;8.20;5.20;;;;;;;13.17;91.81;100595.97;686325;28;4342;-61
2021/10/20 00:16:14;;;;;;;8.10;5.30;;;;;;;13.18;91.15;100602.97;687757;28;1366;-60
2021/10/20 00:16:34;;;;;;;7.60;5.30;;;;;;;13.17;91.87;100600.38;685571;28;1080;-60
2021/10/20 00:16:55;;;;;;;8.03;5.20;;;;;;;13.16;92.28;100599.47;683294;28;2686;-59
2021/10/20 00:17:15;;;;;;;7.15;5.10;;;;;;;13.19;91.90;100594.16;682762;28;1113;-59
2021/10/20 00:17:36;;;;;;;6.53;5.07;;;;;;;13.20;91.69;100595.06;680517;28;1358;-60
2021/10/20 00:17:56;;;;;;;8.07;5.10;;;;;;;13.20;91.50;100593.28;680575;28;1175;-61
2021/10/20 00:18:17;;;;;;;8.18;5.20;;;;;;;13.17;91.63;100595.97;680180;28;1105;-57
2021/10/20 00:18:38;;;;;;;6.77;5.03;;;;;;;13.19;91.12;100595.94;683276;28;1110;-61
2021/10/20 00:18:58;;;;;;;6.13;5.00;;;;;;;13.18;91.58;100595.09;685496;28;4412;-59
2021/10/20 00:19:18;;;;;;;7.00;4.93;;;;;;;13.37;89.44;100593.03;683227;28;3778;-60
2021/10/20 00:19:40;;;;;;;7.50;4.82;;;;;;;13.49;88.38;100583.22;684688;28;1486;-58
2021/10/20 00:20:07;;;;;;;7.60;5.03;;;;;;;13.44;89.51;100592.03;685012;28;1205;-61
2021/10/20 00:20:28;;;;;;;7.95;5.30;;;;;;;13.31;91.39;100589.63;684067;28;1272;-60
2021/10/20 00:20:48;;;;;;;7.32;4.90;;;;;;;13.27;91.34;100594.91;684208;28;1370;-60
2021/10/20 00:21:09;;;;;;;7.45;4.80;;;;;;;13.23;91.25;100590.59;685590;28;1152;-60
2021/10/20 00:21:30;;;;;;;7.25;5.20;;;;;;;13.20;91.97;100589.81;687630;28;1207;-60
2021/10/20 00:21:50;;;;;;;6.13;4.97;;;;;;;13.20;91.57;100589.81;686666;28;4510;-60
2021/10/20 00:22:10;;;;;;;6.25;5.10;;;;;;;13.15;91.68;100595.13;686599;28;1450;-58
2021/10/20 00:22:31;;;;;;;6.73;5.07;;;;;;;13.15;92.18;100594.25;685598;28;3024;-60
2021/10/20 00:22:53;;;;;;;7.10;5.18;;;;;;;13.14;92.46;100593.41;685791;28;1245;-59
2021/10/20 00:23:14;;;;;;;7.22;4.85;;;;;;;13.12;92.24;100589.91;685975;28;1281;-59
2021/10/20 00:23:34;;;;;;;7.20;5.00;;;;;;;13.10;92.21;100594.34;686256;28;1139;-59
2021/10/20 00:23:55;;;;;;;6.47;5.07;;;;;;;13.17;91.27;100587.25;686130;28;1386;-60
2021/10/20 00:24:15;;;;;;;6.68;5.18;;;;;;;13.16;90.48;100581.09;686873;28;1132;-60
2021/10/20 00:24:36;;;;;;;7.85;5.18;;;;;;;13.28;90.42;100586.16;687845;28;1045;-59
2021/10/20 00:24:56;;;;;;;7.30;5.20;;;;;;;13.36;89.46;100587.81;687327;28;4470;-60
2021/10/20 00:25:19;;;;;;;7.53;4.80;;;;;;;13.37;89.86;100585.16;687882;28;1120;-59
2021/10/20 00:25:40;;;;;;;7.00;5.00;;;;;;;13.36;90.29;100586.06;687844;28;1219;-61
2021/10/20 00:26:01;;;;;;;6.15;5.07;;;;;;;13.34;90.82;100579.94;687789;28;2270;-60
2021/10/20 00:26:22;;;;;;;6.63;5.10;;;;;;;13.30;90.00;100575.63;687096;28;1045;-61
2021/10/20 00:26:42;;;;;;;7.32;5.10;;;;;;;13.36;89.20;100577.31;686582;28;1307;-61
2021/10/20 00:27:03;;;;;;;7.78;5.00;;;;;;;13.39;88.91;100579.91;688262;28;1187;-58
2021/10/20 00:27:23;;;;;;;6.60;4.73;;;;;;;13.35;89.77;100576.44;684463;28;1315;-59
2021/10/20 00:27:44;;;;;;;6.18;4.88;;;;;;;13.29;90.36;100580.03;684989;28;1244;-57
2021/10/20 00:28:06;;;;;;;6.40;5.15;;;;;;;13.24;90.01;100581.00;684132;28;4434;-58
2021/10/20 00:28:26;;;;;;;7.38;5.35;;;;;;;13.18;90.66;100578.44;683205;28;2049;-60
2021/10/20 00:28:47;;;;;;;7.40;5.00;;;;;;;13.14;91.30;100582.91;683697;28;1052;-59
2021/10/20 00:29:07;;;;;;;7.67;4.93;;;;;;;13.10;91.68;100581.22;681603;28;1226;-59
2021/10/20 00:29:27;;;;;;;7.77;4.80;;;;;;;13.08;91.95;100577.75;683529;28;3130;-59
2021/10/20 00:29:48;;;;;;;6.93;4.93;;;;;;;13.05;91.92;100578.66;681589;28;2475;-59
2021/10/20 00:30:09;;;;;;;6.55;4.90;;;;;;;13.16;90.06;100581.09;683877;28;1304;-60
2021/10/20 00:30:29;;;;;;;6.68;4.97;;;;;;;13.33;88.99;100577.31;686640;28;1083;-58
2021/10/20 00:30:50;;;;;;;8.63;5.33;;;;;;;13.36;88.74;100577.31;685717;28;4645;-61
2021/10/20 00:31:10;;;;;;;7.68;5.10;;;;;;;13.33;89.26;100578.19;687595;28;1363;-61
2021/10/20 00:31:30;;;;;;;6.33;5.00;;;;;;;13.30;90.24;100578.25;684814;28;1461;-60
2021/10/20 00:31:51;;;;;;;6.72;4.80;;;;;;;13.26;90.67;100582.69;685753;28;1057;-60
2021/10/20 00:32:11;;;;;;;8.40;5.00;;;;;;;13.22;90.67;100577.50;686569;28;1296;-60
2021/10/20 00:32:31;;;;;;;7.20;4.87;;;;;;;13.17;90.98;100572.34;685689;28;1161;-60
2021/10/20 00:32:52;;;;;;;6.72;4.97;;;;;;;13.13;91.21;100586.41;685400;28;3238;-60
2021/10/20 00:33:12;;;;;;;6.00;4.73;;;;;;;13.11;91.41;100578.56;686155;28;3981;-60
2021/10/20 00:33:33;;;;;;;7.68;4.88;;;;;;;13.09;91.29;100576.84;687587;28;1270;-61
2021/10/20 00:33:53;;;;;;;8.23;4.90;;;;;;;13.16;90.16;100575.84;687679;28;4486;-60
2021/10/20 00:34:14;;;;;;;7.10;5.05;;;;;;;13.16;90.84;100578.47;688697;28;1214;-60
2021/10/20 00:34:34;;;;;;;6.43;5.00;;;;;;;13.13;90.54;100581.16;688089;28;1117;-60
2021/10/20 00:34:54;;;;;;;7.07;5.40;;;;;;;13.15;90.02;100579.38;688322;28;937;-60
2021/10/20 00:35:15;;;;;;;6.77;4.90;;;;;;;13.25;89.29;100586.22;688144;28;1278;-58
2021/10/20 00:35:35;;;;;;;7.30;5.00;;;;;;;13.23;89.81;100579.25;688560;28;1303;-60
2021/10/20 00:35:55;;;;;;;7.22;4.93;;;;;;;13.31;90.10;100571.25;688170;28;1136;-59
2021/10/20 00:36:16;;;;;;;6.10;4.80;;;;;;;13.53;87.21;100577.88;688447;28;1218;-60
2021/10/20 00:36:36;;;;;;;8.00;4.80;;;;;;;13.56;86.69;100569.94;687270;28;3856;-59
2021/10/20 00:36:57;;;;;;;6.40;4.67;;;;;;;13.54;87.83;100574.38;687483;28;4706;-60
2021/10/20 00:37:17;;;;;;;6.60;4.90;;;;;;;13.48;88.71;100566.59;688006;28;1123;-60
2021/10/20 00:37:38;;;;;;;6.53;4.77;;;;;;;13.45;89.11;100577.16;687286;28;1467;-60
2021/10/20 00:37:58;;;;;;;6.85;4.85;;;;;;;13.48;88.44;100574.47;686394;28;1250;-60
2021/10/20 00:38:18;;;;;;;6.17;4.90;;;;;;;13.41;88.55;100571.06;680904;29;1256;-60
2021/10/20 00:38:39;;;;;;;7.15;5.03;;;;;;;13.42;88.51;100572.81;681244;29;1157;-60
2021/10/20 00:38:59;;;;;;;6.57;4.90;;;;;;;13.38;89.15;100576.38;680643;29;3402;-60
2021/10/20 00:39:19;;;;;;;6.77;4.73;;;;;;;13.35;89.74;100570.31;681028;29;1077;-60
2021/10/20 00:39:40;;;;;;;7.65;5.00;;;;;;;13.27;89.46;100568.66;680985;28;1133;-59
2021/10/20 00:40:00;;;;;;;8.33;5.00;;;;;;;13.23;89.67;100577.47;682956;28;5124;-60
2021/10/20 00:40:21;;;;;;;7.80;4.93;;;;;;;13.22;90.20;100578.41;687195;28;3357;-60
2021/10/20 00:40:41;;;;;;;7.13;5.13;;;;;;;13.19;90.40;100574.94;688085;28;1250;-60
2021/10/20 00:41:02;;;;;;;6.78;5.07;;;;;;;13.16;90.49;100580.25;685795;28;1432;-59
2021/10/20 00:41:27;;;;;;;7.77;5.30;;;;;;;13.13;90.37;100570.66;685465;28;1260;-61
2021/10/20 00:41:52;;;;;;;7.75;5.20;;;;;;;13.11;91.05;100569.81;685615;28;1212;-59
2021/10/20 00:42:12;;;;;;;9.75;5.30;;;;;;;13.17;89.80;100571.50;685059;28;971;-59
2021/10/20 00:42:33;;;;;;;8.68;5.18;;;;;;;13.15;89.64;100573.25;684684;28;1128;-61
2021/10/20 00:42:53;;;;;;;7.28;5.25;;;;;;;13.13;89.77;100570.66;686435;28;4483;-59
2021/10/20 00:43:14;;;;;;;6.80;5.07;;;;;;;13.11;90.50;100570.69;689109;28;1021;-60
2021/10/20 00:43:34;;;;;;;6.60;5.15;;;;;;;13.09;90.78;100571.63;686973;28;3102;-60
2021/10/20 00:43:55;;;;;;;8.20;5.20;;;;;;;13.08;90.35;100577.75;685127;28;1088;-61
2021/10/20 00:44:15;;;;;;;8.20;5.20;;;;;;;13.09;90.21;100569.00;685390;28;1466;-59
2021/10/20 00:44:55;;;;;;;6.97;5.00;;;;;;;13.09;89.92;100572.47;685806;28;1384;-59
2021/10/20 00:45:18;;;;;;;6.88;4.78;;;;;;;13.15;89.85;100568.00;684603;28;1097;-59
2021/10/20 00:45:38;;;;;;;7.72;5.18;;;;;;;13.22;88.97;100562.66;686059;28;1147;-58
2021/10/20 00:45:58;;;;;;;8.77;5.27;;;;;;;13.20;88.83;100561.78;684685;28;4326;-58
2021/10/20 00:46:29;;;;;;;7.45;5.03;;;;;;;13.22;88.82;100559.13;685644;28;1321;-60
2021/10/20 00:46:49;;;;;;;7.63;5.05;;;;;;;13.29;88.37;100559.00;684807;28;1255;-60
2021/10/20 00:47:10;;;;;;;7.20;4.78;;;;;;;13.26;88.42;100559.06;684433;28;3544;-64
2021/10/20 00:47:31;;;;;;;6.77;4.80;;;;;;;13.23;89.08;100566.13;685250;28;1356;-60
2021/10/20 00:47:51;;;;;;;6.20;5.07;;;;;;;13.18;89.82;100557.44;686973;28;1374;-60
2021/10/20 00:48:12;;;;;;;7.28;5.20;;;;;;;13.17;89.89;100553.13;688173;28;1037;-60
2021/10/20 00:48:33;;;;;;;6.85;4.80;;;;;;;13.13;90.31;100559.31;687261;28;1531;-60
2021/10/20 00:48:54;;;;;;;6.60;4.77;;;;;;;13.08;90.87;100559.38;686931;28;4422;-60
2021/10/20 00:49:15;;;;;;;6.47;4.88;;;;;;;13.05;91.78;100551.56;688802;28;1120;-60
2021/10/20 00:49:35;;;;;;;7.10;5.23;;;;;;;13.01;92.27;100560.38;687535;28;1155;-61
2021/10/20 00:49:56;;;;;;;6.88;5.18;;;;;;;12.97;92.03;100554.28;687418;28;1081;-59
2021/10/20 00:50:17;;;;;;;7.57;5.30;;;;;;;12.95;92.29;100556.09;682642;28;1754;-59
2021/10/20 00:50:37;;;;;;;8.40;5.10;;;;;;;12.92;92.52;100551.75;682939;28;3824;-60
2021/10/20 00:50:58;;;;;;;7.55;4.97;;;;;;;12.95;91.28;100549.06;683134;28;1075;-59
2021/10/20 00:51:18;;;;;;;7.03;5.40;;;;;;;12.95;90.85;100549.06;682939;28;1234;-58
2021/10/20 00:51:38;;;;;;;8.07;5.37;;;;;;;12.99;90.81;100549.03;683176;28;1590;-60
2021/10/20 00:51:59;;;;;;;9.40;5.30;;;;;;;13.01;91.06;100550.72;682310;28;4524;-61
2021/10/20 00:52:21;;;;;;;7.70;5.00;;;;;;;13.19;89.99;100552.19;688185;28;1152;-59
2021/10/20 00:52:42;;;;;;;6.95;5.20;;;;;;;13.19;89.11;100548.69;687485;28;1072;-60
2021/10/20 00:53:03;;;;;;;7.20;5.20;;;;;;;13.18;89.24;100546.97;688371;28;1124;-60
2021/10/20 00:53:24;;;;;;;7.68;4.75;;;;;;;13.18;90.18;100552.19;686973;28;1307;-61
2021/10/20 00:53:44;;;;;;;8.98;4.70;;;;;;;13.15;90.66;100547.00;687708;28;1340;-60
2021/10/20 00:54:05;;;;;;;7.93;5.00;;;;;;;13.10;90.91;100555.84;684370;28;3828;-61
2021/10/20 00:54:27;;;;;;;7.07;5.00;;;;;;;13.06;91.64;100553.31;684594;28;1212;-61
2021/10/20 00:54:50;;;;;;;7.05;5.10;;;;;;;13.03;91.29;100553.31;685376;28;1524;-60
2021/10/20 00:55:13;;;;;;;7.32;4.95;;;;;;;12.99;91.62;100555.16;684644;28;4783;-60
2021/10/20 00:55:35;;;;;;;9.00;5.55;;;;;;;12.94;90.90;100551.72;684880;28;1285;-60
2021/10/20 00:55:55;;;;;;;9.27;5.38;;;;;;;12.89;90.71;100546.56;686468;28;1363;-59
2021/10/20 00:56:16;;;;;;;7.03;5.35;;;;;;;12.87;91.62;100552.72;688655;28;1366;-63
2021/10/20 00:56:36;;;;;;;7.03;5.37;;;;;;;12.82;92.49;100549.31;683880;28;1304;-59
2021/10/20 00:56:57;;;;;;;6.78;5.50;;;;;;;12.78;92.78;100553.75;685181;28;1208;-61
2021/10/20 00:57:17;;;;;;;7.45;5.57;;;;;;;12.74;93.20;100547.66;682998;28;1169;-59
2021/10/20 00:57:39;;;;;;;6.90;5.40;;;;;;;12.73;92.80;100548.56;683103;28;3679;-59
2021/10/20 00:58:00;;;;;;;6.68;5.20;;;;;;;12.72;92.85;100549.47;682296;28;4355;-60
2021/10/20 00:58:21;;;;;;;7.28;4.78;;;;;;;12.69;93.86;100546.00;683989;28;1447;-59
2021/10/20 00:58:42;;;;;;;7.90;5.15;;;;;;;12.64;94.30;100545.22;686547;28;1298;-58
2021/10/20 00:59:03;;;;;;;7.57;5.57;;;;;;;12.60;93.81;100549.66;686074;28;1479;-60
2021/10/20 00:59:23;;;;;;;7.03;5.55;;;;;;;12.60;93.94;100544.41;685676;28;1340;-60
2021/10/20 00:59:43;;;;;;;8.10;5.17;;;;;;;12.58;93.86;100548.78;685957;28;1217;-59
2021/10/20 01:00:06;;;;;;;8.70;5.50;;;;;;;12.59;93.61;100543.53;685477;28;1057;-60
2021/10/20 01:00:29;;;;;;;8.48;5.45;;;;;;;12.59;93.64;100546.13;685932;28;1413;-60
2021/10/20 01:00:49;;;;;;;6.80;5.00;;;;;;;12.62;93.34;100547.00;684465;28;4598;-59
2021/10/20 01:01:10;;;;;;;6.90;5.05;;;;;;;12.65;92.86;100541.69;685555;28;3442;-60
2021/10/20 01:01:30;;;;;;;7.03;5.20;;;;;;;12.65;92.70;100541.69;684711;28;1221;-60
2021/10/20 01:01:51;;;;;;;6.60;5.00;;;;;;;12.64;92.20;100539.97;684590;28;1381;-60
2021/10/20 01:02:11;;;;;;;7.07;5.23;;;;;;;12.62;91.89;100542.63;685569;28;1167;-60
2021/10/20 01:02:33;;;;;;;7.70;5.43;;;;;;;12.61;92.21;100538.25;685609;28;1499;-60
2021/10/20 01:02:54;;;;;;;7.60;5.10;;;;;;;12.64;92.33;100545.22;685544;28;1192;-60
2021/10/20 01:03:14;;;;;;;6.93;5.13;;;;;;;12.68;91.88;100541.66;685714;28;1431;-58
2021/10/20 01:03:34;;;;;;;7.60;5.23;;;;;;;12.67;92.69;100539.91;688150;28;1117;-59
2021/10/20 01:03:55;;;;;;;8.17;5.03;;;;;;;12.66;93.72;100538.19;687561;28;4352;-60
2021/10/20 01:04:15;;;;;;;7.35;5.22;;;;;;;12.60;94.02;100540.00;684733;28;1264;-59
2021/10/20 01:04:36;;;;;;;8.63;5.37;;;;;;;12.60;91.93;100529.53;681226;28;3495;-59
2021/10/20 01:04:57;;;;;;;6.85;5.20;;;;;;;12.63;92.55;100533.88;682188;28;1525;-59
2021/10/20 01:05:17;;;;;;;6.87;5.30;;;;;;;12.59;94.32;100540.91;682029;28;1414;-60
2021/10/20 01:05:38;;;;;;;7.43;5.20;;;;;;;12.56;93.99;100533.09;682076;28;1050;-59
2021/10/20 01:05:58;;;;;;;7.53;5.18;;;;;;;12.56;94.35;100534.84;682869;28;1974;-60
2021/10/20 01:06:19;;;;;;;7.53;5.20;;;;;;;12.52;94.75;100535.78;682577;28;1153;-60
2021/10/20 01:06:39;;;;;;;6.93;5.30;;;;;;;12.52;94.84;100527.91;683118;28;1353;-63
2021/10/20 01:07:00;;;;;;;7.37;5.33;;;;;;;12.53;94.17;100533.13;682968;28;4520;-60
2021/10/20 01:07:23;;;;;;;7.55;5.22;;;;;;;12.53;94.86;100533.13;683603;28;1240;-60
2021/10/20 01:07:43;;;;;;;8.00;5.20;;;;;;;12.51;94.57;100531.44;684811;28;1268;-61
2021/10/20 01:08:04;;;;;;;7.20;5.03;;;;;;;12.51;93.77;100529.66;685910;28;3111;-59
2021/10/20 01:08:25;;;;;;;6.57;4.97;;;;;;;12.53;93.50;100533.13;686541;28;1399;-57
2021/10/20 01:08:45;;;;;;;8.80;5.40;;;;;;;12.57;92.50;100533.94;687740;28;1001;-59
2021/10/20 01:09:05;;;;;;;8.37;5.20;;;;;;;12.62;91.65;100526.88;688239;28;1445;-60
2021/10/20 01:09:26;;;;;;;7.22;5.35;;;;;;;12.62;92.22;100531.28;687211;28;1161;-61
2021/10/20 01:09:49;;;;;;;8.20;5.00;;;;;;;12.59;92.20;100527.78;687471;28;1084;-58
2021/10/20 01:10:10;;;;;;;9.35;5.30;;;;;;;12.59;92.39;100535.66;687711;28;4665;-60
2021/10/20 01:10:31;;;;;;;9.60;5.45;;;;;;;12.58;91.68;100530.44;687981;28;1312;-60
2021/10/20 01:10:51;;;;;;;7.57;4.93;;;;;;;12.57;91.72;100529.59;687804;28;1319;-60
2021/10/20 01:11:13;;;;;;;7.40;5.37;;;;;;;12.57;92.03;100529.59;688958;28;1137;-60
2021/10/20 01:11:33;;;;;;;6.78;5.30;;;;;;;12.59;92.64;100527.78;687053;28;3162;-60
2021/10/20 01:11:54;;;;;;;7.77;5.50;;;;;;;12.63;92.42;100525.09;687131;28;3201;-58
2021/10/20 01:12:17;;;;;;;8.50;5.47;;;;;;;12.63;92.81;100526.00;687474;28;1619;-59
2021/10/20 01:12:38;;;;;;;7.63;5.13;;;;;;;12.63;91.91;100522.50;687503;28;1347;-60
2021/10/20 01:12:59;;;;;;;6.88;5.47;;;;;;;12.63;92.44;100525.09;687190;28;4484;-65
2021/10/20 01:13:19;;;;;;;7.40;5.50;;;;;;;12.63;92.92;100527.72;688691;28;1117;-60
2021/10/20 01:13:40;;;;;;;8.47;5.30;;;;;;;12.59;92.59;100522.53;686875;28;1107;-60
2021/10/20 01:14:00;;;;;;;7.65;5.15;;;;;;;12.56;92.21;100521.75;687464;28;1081;-59
2021/10/20 01:14:21;;;;;;;7.13;5.00;;;;;;;12.54;92.70;100520.88;688762;28;1295;-60
2021/10/20 01:14:43;;;;;;;7.43;5.07;;;;;;;12.52;92.37;100526.16;687975;28;1092;-60
2021/10/20 01:15:16;;;;;;;7.50;4.97;;;;;;;12.52;92.79;100523.53;687800;28;3203;-59
2021/10/20 01:15:37;;;;;;;7.40;5.57;;;;;;;12.50;93.53;100527.94;687044;28;1541;-60
2021/10/20 01:15:59;;;;;;;7.80;5.43;;;;;;;12.51;93.62;100528.81;687213;28;4446;-60
2021/10/20 01:16:20;;;;;;;8.50;5.30;;;;;;;12.69;91.77;100525.03;686991;28;993;-59
2021/10/20 01:16:42;;;;;;;6.65;5.05;;;;;;;12.81;90.13;100523.94;687894;28;1120;-60
2021/10/20 01:17:02;;;;;;;8.23;5.18;;;;;;;12.79;90.49;100529.22;687628;28;1133;-59
2021/10/20 01:17:23;;;;;;;8.93;5.40;;;;;;;12.75;90.13;100523.19;687708;28;1120;-59
2021/10/20 01:17:45;;;;;;;8.03;5.10;;;;;;;12.91;89.18;100528.16;687792;28;1274;-58
2021/10/20 01:18:06;;;;;;;7.60;5.18;;;;;;;12.88;89.90;100523.84;687418;28;1148;-60
2021/10/20 01:18:27;;;;;;;8.32;5.28;;;;;;;12.86;90.79;100530.88;687343;28;1817;-61
2021/10/20 01:18:48;;;;;;;7.60;5.30;;;;;;;12.82;91.31;100530.94;686382;28;4617;-59
2021/10/20 01:19:09;;;;;;;7.07;5.30;;;;;;;12.79;91.64;100531.84;686255;28;1292;-61
2021/10/20 01:19:30;;;;;;;6.78;5.18;;;;;;;12.76;90.49;100531.91;686276;28;1473;-60
2021/10/20 01:19:51;;;;;;;7.20;5.25;;;;;;;12.73;91.96;100530.19;685848;28;1324;-60
2021/10/20 01:20:12;;;;;;;7.53;5.45;;;;;;;12.72;92.08;100524.97;686698;28;1192;-60
2021/10/20 01:20:33;;;;;;;7.07;5.47;;;;;;;12.70;92.22;100529.41;686621;28;1143;-60
2021/10/20 01:20:57;;;;;;;7.60;5.03;;;;;;;12.69;92.46;100527.66;686759;28;1290;-60
2021/10/20 01:21:19;;;;;;;7.38;5.18;;;;;;;12.66;92.62;100527.72;687670;28;1477;-60
2021/10/20 01:21:39;;;;;;;7.53;5.35;;;;;;;12.64;91.68;100526.84;688324;28;1216;-60
2021/10/20 01:22:01;;;;;;;7.65;5.30;;;;;;;12.60;90.93;100529.53;686754;28;4471;-60
2021/10/20 01:22:21;;;;;;;7.20;5.38;;;;;;;12.62;91.73;100526.03;688000;28;1286;-60
2021/10/20 01:22:44;;;;;;;6.93;5.10;;;;;;;12.62;92.12;100520.78;687663;28;1523;-60
2021/10/20 01:23:05;;;;;;;8.23;5.20;;;;;;;12.63;91.32;100526.00;687256;28;1236;-63
2021/10/20 01:23:27;;;;;;;8.27;5.40;;;;;;;12.65;92.00;100520.72;688291;28;1125;-60
2021/10/20 01:23:48;;;;;;;8.68;5.38;;;;;;;12.66;91.91;100527.72;687512;28;1133;-60
2021/10/20 01:24:09;;;;;;;7.68;5.53;;;;;;;12.63;92.66;100531.25;688061;28;1288;-60
2021/10/20 01:24:29;;;;;;;8.00;5.35;;;;;;;12.60;91.73;100519.03;685332;28;1058;-60
2021/10/20 01:24:50;;;;;;;6.53;4.93;;;;;;;12.61;90.79;100522.50;684459;28;4521;-60
2021/10/20 01:25:11;;;;;;;8.75;5.30;;;;;;;12.60;90.89;100524.28;685291;28;1343;-59
2021/10/20 01:25:31;;;;;;;9.32;5.60;;;;;;;12.62;91.65;100526.03;685065;28;3408;-59
2021/10/20 01:25:52;;;;;;;8.20;5.57;;;;;;;12.64;91.91;100521.59;685336;28;1232;-59
2021/10/20 01:26:14;;;;;;;7.82;5.30;;;;;;;12.64;91.99;100529.47;685435;28;1962;-60
2021/10/20 01:26:34;;;;;;;7.03;5.15;;;;;;;12.63;91.46;100522.50;688644;28;1201;-60
2021/10/20 01:26:56;;;;;;;7.23;5.10;;;;;;;12.63;91.65;100532.97;687970;28;1340;-60
2021/10/20 01:27:16;;;;;;;7.30;5.30;;;;;;;12.62;91.92;100526.03;687740;28;1379;-59
2021/10/20 01:27:38;;;;;;;7.00;5.30;;;;;;;12.61;91.39;100522.50;687961;28;1517;-60
2021/10/20 01:27:58;;;;;;;8.35;5.30;;;;;;;12.70;90.43;100525.00;688145;28;4302;-60
2021/10/20 01:28:18;;;;;;;6.70;5.07;;;;;;;12.71;90.92;100521.50;687060;28;1105;-60
2021/10/20 01:28:39;;;;;;;7.20;5.18;;;;;;;12.72;90.80;100523.25;688222;28;1205;-59
2021/10/20 01:29:00;;;;;;;6.73;5.03;;;;;;;12.72;90.97;100527.59;686818;28;3079;-60
2021/10/20 01:29:20;;;;;;;6.88;5.20;;;;;;;12.69;91.48;100530.28;687293;28;2343;-61
2021/10/20 01:29:41;;;;;;;7.18;5.10;;;;;;;12.80;89.97;100523.09;687136;28;1870;-60
2021/10/20 01:30:04;;;;;;;7.60;4.93;;;;;;;12.95;88.18;100525.47;687176;28;1173;-61
2021/10/20 01:30:24;;;;;;;7.25;4.93;;;;;;;13.02;88.57;100525.38;686983;28;962;-61
2021/10/20 01:30:44;;;;;;;8.00;5.00;;;;;;;12.97;88.04;100525.44;688061;28;1256;-59
2021/10/20 01:31:05;;;;;;;6.97;4.87;;;;;;;13.01;87.44;100523.63;687703;28;4362;-60
2021/10/20 01:31:25;;;;;;;7.03;5.18;;;;;;;13.00;88.29;100527.16;684305;28;1345;-59
2021/10/20 01:31:55;;;;;;;7.30;5.13;;;;;;;12.95;88.39;100521.97;684948;28;1157;-60
2021/10/20 01:32:15;;;;;;;7.97;5.05;;;;;;;12.94;89.48;100521.13;684780;28;1217;-60
2021/10/20 01:32:36;;;;;;;7.23;5.10;;;;;;;12.90;89.08;100516.81;684220;28;3248;-59
2021/10/20 01:32:56;;;;;;;7.13;5.00;;;;;;;12.89;88.41;100522.06;685368;28;1493;-60
2021/10/20 01:33:17;;;;;;;7.17;5.07;;;;;;;12.94;87.91;100520.25;685565;28;1383;-59
2021/10/20 01:33:37;;;;;;;6.68;5.00;;;;;;;13.01;87.98;100513.13;685333;28;1204;-60
2021/10/20 01:33:58;;;;;;;6.83;4.93;;;;;;;12.97;89.25;100516.72;685857;28;4319;-59
2021/10/20 01:34:18;;;;;;;6.90;4.90;;;;;;;13.14;86.61;100517.28;687474;28;1060;-60
2021/10/20 01:34:39;;;;;;;7.07;4.90;;;;;;;13.26;85.94;100517.06;687980;28;1100;-60
2021/10/20 01:34:59;;;;;;;6.47;5.00;;;;;;;13.31;85.81;100521.38;689151;28;1270;-60
2021/10/20 01:35:19;;;;;;;6.43;4.90;;;;;;;13.25;86.93;100517.97;687861;28;1036;-57
2021/10/20 01:35:40;;;;;;;6.40;4.85;;;;;;;13.19;87.72;100518.06;687725;28;1118;-59
2021/10/20 01:36:00;;;;;;;8.40;5.10;;;;;;;13.15;88.70;100526.88;687016;28;2332;-59
2021/10/20 01:36:21;;;;;;;7.72;5.25;;;;;;;13.10;88.74;100519.09;687734;28;4215;-60
2021/10/20 01:36:42;;;;;;;6.70;5.10;;;;;;;13.06;88.04;100519.19;686947;28;1280;-61
2021/10/20 01:37:04;;;;;;;7.20;5.03;;;;;;;13.01;87.52;100519.25;687267;28;4544;-60
2021/10/20 01:37:26;;;;;;;7.35;5.07;;;;;;;12.98;89.08;100514.06;687681;28;1143;-60
2021/10/20 01:37:47;;;;;;;7.80;5.13;;;;;;;12.93;89.21;100508.91;686961;28;1089;-59
2021/10/20 01:38:07;;;;;;;7.43;5.17;;;;;;;12.91;88.59;100509.81;688358;28;1211;-61
2021/10/20 01:38:27;;;;;;;6.90;5.15;;;;;;;12.93;90.05;100513.25;688182;28;1352;-60
2021/10/20 01:38:50;;;;;;;7.57;5.30;;;;;;;12.89;91.09;100517.72;687025;28;1195;-61
2021/10/20 01:39:11;;;;;;;7.85;5.30;;;;;;;12.84;89.94;100510.81;687470;28;3326;-58
2021/10/20 01:39:33;;;;;;;6.73;4.80;;;;;;;12.84;89.82;100516.91;688210;28;3059;-59
2021/10/20 01:39:56;;;;;;;8.35;5.00;;;;;;;12.82;90.01;100513.47;686773;28;4494;-59
2021/10/20 01:40:17;;;;;;;7.43;4.75;;;;;;;13.05;87.82;100514.81;686725;28;1227;-58